Time;durP1;ratioP1;P1;durP2;ratioP2;P2;SDS_P1;SDS_P2;PMS_P1;PMS_P2;Temp;Humidity;BMP_temperature;BMP_pressure;BME280_temperature;BME280_humidity;BME280_pressure;Samples;Min_cycle;Max_cycle;Signal;HPM_P1;HPM_P2
2022/07/02 00:01:37;;;;;;;4.22;3.28;;;16.70;99.90;;;;;;5024958;28;20053;-34
2022/07/02 00:04:04;;;;;;;3.63;3.30;;;16.70;99.90;;;;;;5027049;28;20108;-36
2022/07/02 00:06:31;;;;;;;4.40;3.08;;;16.70;99.90;;;;;;5025540;28;20397;-34
2022/07/02 00:08:57;;;;;;;3.88;2.90;;;16.70;99.90;;;;;;5025479;28;20538;-35
2022/07/02 00:11:25;;;;;;;3.53;3.22;;;16.70;99.90;;;;;;5026035;28;20088;-33
2022/07/02 00:13:52;;;;;;;3.40;2.60;;;16.70;99.90;;;;;;5026398;28;20117;-34
2022/07/02 00:16:17;;;;;;;3.95;2.50;;;16.60;99.90;;;;;;5025081;28;20026;-34
2022/07/02 00:18:43;;;;;;;3.78;2.50;;;16.60;99.90;;;;;;5026366;28;20087;-36
2022/07/02 00:21:09;;;;;;;4.78;2.53;;;16.60;99.90;;;;;;5025711;28;20048;-35
2022/07/02 00:23:34;;;;;;;3.50;2.58;;;16.60;99.90;;;;;;5024639;28;20118;-35
2022/07/02 00:26:27;;;;;;;3.03;2.65;;;16.60;99.90;;;;;;5025616;28;20033;-34
2022/07/02 00:29:05;;;;;;;;;;;16.60;99.90;;;;;;5011851;28;20481;-33
2022/07/02 00:31:33;;;;;;;7.07;3.00;;;16.60;99.90;;;;;;5024499;28;19909;-34
2022/07/02 00:33:59;;;;;;;3.28;2.90;;;16.50;99.90;;;;;;5026511;28;20044;-34
2022/07/02 00:36:26;;;;;;;3.45;3.00;;;16.50;99.90;;;;;;5024826;28;20509;-36
2022/07/02 00:38:51;;;;;;;4.60;2.78;;;16.50;99.90;;;;;;5025870;28;20095;-35
2022/07/02 00:41:18;;;;;;;3.75;2.80;;;16.50;99.90;;;;;;5025240;28;20034;-34
2022/07/02 00:43:46;;;;;;;3.58;2.80;;;16.40;99.90;;;;;;5025117;28;20092;-36
2022/07/02 00:46:13;;;;;;;3.42;2.70;;;16.50;99.90;;;;;;5026241;28;20459;-34
2022/07/02 00:48:39;;;;;;;3.63;2.83;;;16.40;99.90;;;;;;5024551;28;20404;-35
2022/07/02 00:51:04;;;;;;;3.53;2.85;;;16.40;99.90;;;;;;5025413;28;20108;-35
2022/07/02 00:53:30;;;;;;;4.65;3.10;;;16.30;99.90;;;;;;5024807;28;20116;-35
2022/07/02 00:55:58;;;;;;;4.50;3.10;;;16.30;99.90;;;;;;5025557;28;20069;-34
2022/07/02 00:58:25;;;;;;;3.95;3.08;;;16.30;99.90;;;;;;5024440;28;20361;-34
2022/07/02 01:00:51;;;;;;;4.63;3.08;;;16.30;99.90;;;;;;5025382;28;20061;-35
2022/07/02 01:03:21;;;;;;;3.75;2.85;;;16.20;99.90;;;;;;5025196;28;20018;-35
2022/07/02 01:05:49;;;;;;;4.95;3.13;;;16.30;99.90;;;;;;5024943;28;20532;-35
2022/07/02 01:11:04;;;;;;;4.05;3.05;;;16.20;99.90;;;;;;5025829;28;20054;-35
2022/07/02 01:13:34;;;;;;;5.20;3.20;;;16.20;99.90;;;;;;5024224;28;20022;-35
2022/07/02 01:16:00;;;;;;;4.03;3.00;;;16.20;99.90;;;;;;5025835;28;20087;-33
2022/07/02 01:18:26;;;;;;;4.63;3.10;;;16.10;99.90;;;;;;5025287;28;20021;-34
2022/07/02 01:20:51;;;;;;;3.65;3.13;;;16.10;99.90;;;;;;5025028;28;20045;-33
2022/07/02 01:23:17;;;;;;;3.05;2.75;;;16.10;99.90;;;;;;5025114;28;20028;-35
2022/07/02 01:25:50;;;;;;;3.75;3.00;;;16.10;99.90;;;;;;5024513;28;20037;-34
2022/07/02 01:28:16;;;;;;;4.85;2.90;;;16.00;99.90;;;;;;5025148;28;20432;-34
2022/07/02 01:30:42;;;;;;;3.85;3.30;;;16.00;99.90;;;;;;5025451;28;20029;-34
2022/07/02 01:33:07;;;;;;;3.33;2.92;;;15.90;99.90;;;;;;5024892;28;20068;-34
2022/07/02 01:35:33;;;;;;;3.30;3.00;;;15.90;99.90;;;;;;5025083;28;20017;-34
2022/07/02 01:37:58;;;;;;;5.05;3.03;;;15.90;99.90;;;;;;5025181;28;20485;-35
2022/07/02 01:40:24;;;;;;;5.55;3.72;;;15.90;99.90;;;;;;5024267;28;20124;-35
2022/07/02 01:42:50;;;;;;;3.25;2.83;;;15.90;99.90;;;;;;5025315;28;20049;-34
2022/07/02 01:45:15;;;;;;;5.43;3.38;;;15.80;99.90;;;;;;5024921;28;20021;-34
2022/07/02 01:47:41;;;;;;;4.45;3.03;;;15.80;99.90;;;;;;5024704;28;20535;-33
2022/07/02 01:50:07;;;;;;;7.25;3.03;;;15.80;99.90;;;;;;5024484;28;20022;-34
2022/07/02 01:52:33;;;;;;;5.10;3.22;;;15.80;99.90;;;;;;5025971;28;20053;-33
2022/07/02 01:54:58;;;;;;;3.75;3.08;;;15.80;99.90;;;;;;5028585;28;20108;-34
2022/07/02 01:57:24;;;;;;;4.53;3.20;;;15.70;99.90;;;;;;5027731;28;20116;-35
2022/07/02 01:59:49;;;;;;;3.50;3.17;;;15.70;99.90;;;;;;5023644;28;20049;-33
2022/07/02 02:02:15;;;;;;;4.30;3.30;;;15.70;99.90;;;;;;5027836;28;20029;-33
2022/07/02 02:04:41;;;;;;;3.72;3.00;;;15.70;99.90;;;;;;5027963;28;20029;-33
2022/07/02 02:07:07;;;;;;;3.35;3.05;;;15.60;99.90;;;;;;5028686;28;20022;-34
2022/07/02 02:09:32;;;;;;;5.85;3.17;;;15.60;99.90;;;;;;5027690;28;20148;-35
2022/07/02 02:11:58;;;;;;;4.38;3.30;;;15.60;99.90;;;;;;5028801;28;20017;-33
2022/07/02 02:14:23;;;;;;;6.00;3.28;;;15.60;99.90;;;;;;5027780;28;20393;-33
2022/07/02 02:16:49;;;;;;;3.63;3.10;;;15.60;99.90;;;;;;5028082;28;20097;-34
2022/07/02 02:19:15;;;;;;;5.32;3.42;;;15.50;99.90;;;;;;5028381;28;20057;-34
2022/07/02 02:21:40;;;;;;;4.47;3.30;;;15.50;99.90;;;;;;5028093;28;20029;-34
2022/07/02 02:24:06;;;;;;;5.05;3.42;;;15.50;99.90;;;;;;5028094;28;20037;-34
2022/07/02 02:26:32;;;;;;;6.10;3.67;;;15.50;99.90;;;;;;5027046;28;20145;-34
2022/07/02 02:28:58;;;;;;;4.05;3.15;;;15.50;99.90;;;;;;5027602;28;20018;-35
2022/07/02 02:31:23;;;;;;;7.00;3.50;;;15.40;99.90;;;;;;5027188;28;20477;-34
2022/07/02 02:33:50;;;;;;;4.40;3.47;;;15.40;99.90;;;;;;5028324;28;20022;-34
2022/07/02 02:36:15;;;;;;;4.78;3.08;;;15.40;99.90;;;;;;5027095;28;20069;-33
2022/07/02 02:38:41;;;;;;;3.40;3.10;;;15.40;99.90;;;;;;5027396;28;20669;-33
2022/07/02 02:41:08;;;;;;;4.00;3.20;;;15.40;99.90;;;;;;5028094;28;20037;-33
2022/07/02 02:43:34;;;;;;;4.65;3.38;;;15.40;99.90;;;;;;5027055;28;20036;-33
2022/07/02 02:46:01;;;;;;;4.22;3.00;;;15.30;99.90;;;;;;5027526;28;20029;-34
2022/07/02 02:48:28;;;;;;;3.72;3.25;;;15.30;99.90;;;;;;5027490;28;20050;-33
2022/07/02 02:50:53;;;;;;;3.88;3.53;;;15.30;99.90;;;;;;5026744;28;20415;-33
2022/07/02 02:53:19;;;;;;;3.65;3.20;;;15.30;99.90;;;;;;5027444;28;20018;-34
2022/07/02 02:55:45;;;;;;;4.65;3.22;;;15.30;99.90;;;;;;5027559;28;20017;-34
2022/07/02 02:58:10;;;;;;;4.95;3.25;;;15.30;99.90;;;;;;5026865;28;20033;-35
2022/07/02 03:00:36;;;;;;;4.22;3.35;;;15.20;99.90;;;;;;5027105;28;20171;-35
2022/07/02 03:03:01;;;;;;;6.00;3.50;;;15.20;99.90;;;;;;5027019;28;20119;-34
2022/07/02 03:05:27;;;;;;;4.22;3.08;;;15.20;99.90;;;;;;5026115;28;20665;-34
2022/07/02 03:07:52;;;;;;;3.70;3.40;;;15.20;99.90;;;;;;5027913;28;20022;-35
2022/07/02 03:10:18;;;;;;;5.15;3.70;;;15.20;99.90;;;;;;5027417;28;20025;-33
2022/07/02 03:12:44;;;;;;;7.13;3.50;;;15.20;99.90;;;;;;5026115;28;20052;-34
2022/07/02 03:15:10;;;;;;;3.80;3.38;;;15.20;99.90;;;;;;5027430;28;20033;-34
2022/07/02 03:17:35;;;;;;;3.45;3.15;;;15.20;99.90;;;;;;5026478;28;20021;-34
2022/07/02 03:20:01;;;;;;;3.65;3.35;;;15.10;99.90;;;;;;5027067;28;20033;-34
2022/07/02 03:22:26;;;;;;;3.65;3.17;;;15.10;99.90;;;;;;5026733;28;20500;-35
2022/07/02 03:24:52;;;;;;;3.75;3.42;;;15.10;99.90;;;;;;5027675;28;20435;-34
2022/07/02 03:27:17;;;;;;;3.90;3.60;;;15.10;99.90;;;;;;5026048;28;20489;-34
2022/07/02 03:29:43;;;;;;;3.72;3.30;;;15.00;99.90;;;;;;5026772;28;20037;-34
2022/07/02 03:32:09;;;;;;;4.13;3.78;;;15.00;99.90;;;;;;5026720;28;20025;-33
2022/07/02 03:34:34;;;;;;;6.82;3.38;;;15.10;99.90;;;;;;5026275;28;20394;-34
2022/07/02 03:37:00;;;;;;;3.90;3.53;;;15.00;99.90;;;;;;5027085;28;20028;-34
2022/07/02 03:39:25;;;;;;;4.25;3.50;;;15.00;99.90;;;;;;5024889;28;20090;-33
2022/07/02 03:41:51;;;;;;;4.72;3.30;;;15.00;99.90;;;;;;5027060;28;20025;-34
2022/07/02 03:44:17;;;;;;;4.88;3.38;;;15.00;99.90;;;;;;5026474;28;20036;-34
2022/07/02 03:46:42;;;;;;;3.85;3.42;;;15.10;99.90;;;;;;5025815;28;20056;-33
2022/07/02 03:49:08;;;;;;;3.90;3.40;;;15.00;99.90;;;;;;5027118;28;20416;-33
2022/07/02 03:51:34;;;;;;;3.95;3.55;;;15.10;99.90;;;;;;5026406;28;20033;-34
2022/07/02 03:54:00;;;;;;;3.60;3.30;;;15.10;99.90;;;;;;5026225;28;20036;-34
2022/07/02 03:56:25;;;;;;;5.68;3.33;;;15.10;99.90;;;;;;5025975;28;20477;-34
2022/07/02 03:58:51;;;;;;;3.50;3.20;;;15.10;99.90;;;;;;5026684;28;20026;-33
2022/07/02 04:01:17;;;;;;;3.83;3.15;;;15.10;99.90;;;;;;5026080;28;20068;-33
2022/07/02 04:03:43;;;;;;;4.45;3.78;;;15.10;99.90;;;;;;5025985;28;20129;-34
2022/07/02 04:06:08;;;;;;;4.28;3.70;;;15.00;99.90;;;;;;5026511;28;20025;-33
2022/07/02 04:08:34;;;;;;;4.10;3.70;;;15.10;99.90;;;;;;5025579;28;20017;-34
2022/07/02 04:10:59;;;;;;;4.30;3.90;;;15.10;99.90;;;;;;5026159;28;20024;-33
2022/07/02 04:13:25;;;;;;;3.60;3.30;;;15.10;99.90;;;;;;5025581;28;20045;-35
2022/07/02 04:15:51;;;;;;;3.95;3.38;;;15.10;99.90;;;;;;5025318;28;20025;-34
2022/07/02 04:18:18;;;;;;;4.22;3.83;;;15.10;99.90;;;;;;5026113;28;20029;-34
2022/07/02 04:20:43;;;;;;;5.88;3.97;;;15.10;99.90;;;;;;5026257;28;20036;-36
2022/07/02 04:23:09;;;;;;;3.75;3.40;;;15.20;99.90;;;;;;5025534;28;20018;-34
2022/07/02 04:25:35;;;;;;;5.65;3.38;;;15.20;99.90;;;;;;5025487;28;20084;-34
2022/07/02 04:28:01;;;;;;;4.93;3.65;;;15.30;99.90;;;;;;5025956;28;20104;-34
2022/07/02 04:30:26;;;;;;;4.15;3.20;;;15.30;99.90;;;;;;5024510;28;20017;-34
2022/07/02 04:32:52;;;;;;;4.65;3.60;;;15.40;99.90;;;;;;5026706;28;20026;-33
2022/07/02 04:35:17;;;;;;;3.88;3.47;;;15.40;99.90;;;;;;5025599;28;20043;-34
2022/07/02 04:37:43;;;;;;;4.40;3.80;;;15.50;99.90;;;;;;5025412;28;20033;-35
2022/07/02 04:40:09;;;;;;;5.22;3.55;;;15.50;99.90;;;;;;5025534;28;20187;-34
2022/07/02 04:42:34;;;;;;;4.50;3.50;;;15.40;99.90;;;;;;5024639;28;20120;-34
2022/07/02 04:45:00;;;;;;;5.50;3.58;;;15.50;99.90;;;;;;5025784;28;20040;-35
2022/07/02 04:47:25;;;;;;;4.45;3.50;;;15.50;99.90;;;;;;5025511;28;20026;-34
2022/07/02 04:49:51;;;;;;;4.35;3.38;;;15.60;99.90;;;;;;5025487;28;20559;-35
2022/07/02 04:52:17;;;;;;;4.50;3.72;;;15.60;99.90;;;;;;5024913;28;20022;-35
2022/07/02 04:54:42;;;;;;;4.13;3.40;;;15.70;99.90;;;;;;5025263;28;20044;-33
2022/07/02 04:57:08;;;;;;;6.65;3.50;;;15.80;99.90;;;;;;5025293;28;20030;-35
2022/07/02 04:59:34;;;;;;;4.60;3.33;;;15.80;99.90;;;;;;5025019;28;20075;-34
2022/07/02 05:01:59;;;;;;;3.78;3.40;;;15.90;99.90;;;;;;5025843;28;20189;-35
2022/07/02 05:04:25;;;;;;;3.78;3.42;;;16.00;99.90;;;;;;5024889;28;20505;-35
2022/07/02 05:06:50;;;;;;;5.40;3.90;;;16.10;99.90;;;;;;5025614;28;20021;-35
2022/07/02 05:09:16;;;;;;;4.13;3.30;;;16.10;99.90;;;;;;5025539;28;20129;-35
2022/07/02 05:11:41;;;;;;;4.78;3.30;;;16.20;99.90;;;;;;5025065;28;20065;-34
2022/07/02 05:14:07;;;;;;;4.65;3.60;;;16.20;99.90;;;;;;5025646;28;20396;-34
2022/07/02 05:16:32;;;;;;;5.20;3.60;;;16.20;99.90;;;;;;5025067;28;20045;-34
2022/07/02 05:18:59;;;;;;;5.18;3.13;;;16.30;99.90;;;;;;5024838;28;20556;-33
2022/07/02 05:21:25;;;;;;;3.92;2.95;;;16.40;99.90;;;;;;5024753;28;20116;-34
2022/07/02 05:23:50;;;;;;;5.15;2.70;;;16.40;99.90;;;;;;5025937;28;20029;-33
2022/07/02 05:26:16;;;;;;;6.45;2.63;;;16.50;99.90;;;;;;5024158;28;20033;-34
2022/07/02 05:28:42;;;;;;;4.65;3.30;;;16.50;99.90;;;;;;5028625;28;20026;-34
2022/07/02 05:31:07;;;;;;;4.55;2.80;;;16.60;99.90;;;;;;5029181;28;20033;-33
2022/07/02 05:33:33;;;;;;;5.03;3.45;;;16.60;99.90;;;;;;5028104;28;20092;-34
2022/07/02 05:35:58;;;;;;;7.40;3.20;;;16.70;99.90;;;;;;5029846;28;20534;-33
2022/07/02 05:38:24;;;;;;;3.60;3.05;;;16.70;99.90;;;;;;5028647;28;20056;-35
2022/07/02 05:40:49;;;;;;;4.80;3.08;;;16.70;99.90;;;;;;5028476;28;20438;-33
2022/07/02 05:43:15;;;;;;;5.13;2.95;;;16.80;99.90;;;;;;5028579;28;20017;-34
2022/07/02 05:45:40;;;;;;;3.33;2.97;;;16.80;99.90;;;;;;5028840;28;20461;-34
2022/07/02 05:48:06;;;;;;;4.47;3.00;;;16.80;99.90;;;;;;5028024;28;20129;-34
2022/07/02 05:50:31;;;;;;;2.97;2.45;;;16.80;99.90;;;;;;5028508;28;20546;-36
2022/07/02 05:52:57;;;;;;;5.57;2.63;;;16.80;99.90;;;;;;5028387;28;20473;-33
2022/07/02 05:55:23;;;;;;;5.10;2.95;;;16.80;99.90;;;;;;5028192;28;20029;-35
2022/07/02 05:57:48;;;;;;;3.40;2.30;;;16.80;99.90;;;;;;5028630;28;20013;-35
2022/07/02 06:00:14;;;;;;;2.88;2.58;;;16.80;99.90;;;;;;5027604;28;20083;-36
2022/07/02 06:02:40;;;;;;;2.83;2.20;;;16.80;99.90;;;;;;5027981;28;20116;-35
2022/07/02 06:07:51;;;;;;;3.78;2.92;;;16.90;99.90;;;;;;5028242;28;20036;-35
2022/07/02 06:10:19;;;;;;;2.80;2.22;;;16.90;99.90;;;;;;5028494;28;20152;-35
2022/07/02 06:12:50;;;;;;;2.67;2.33;;;17.00;99.90;;;;;;5028208;28;20163;-34
2022/07/02 06:15:17;;;;;;;3.53;2.40;;;17.00;99.90;;;;;;5027659;28;20052;-35
2022/07/02 06:17:43;;;;;;;2.45;2.17;;;17.10;99.90;;;;;;5028361;28;20032;-35
2022/07/02 06:20:09;;;;;;;4.43;2.50;;;17.10;99.90;;;;;;5028517;28;20057;-35
2022/07/02 06:22:34;;;;;;;2.47;2.08;;;17.10;99.90;;;;;;5027031;28;20033;-35
2022/07/02 06:25:00;;;;;;;4.05;2.05;;;17.20;99.90;;;;;;5028472;28;20032;-35
2022/07/02 06:27:26;;;;;;;5.72;1.98;;;17.20;99.90;;;;;;5027528;28;20030;-34
2022/07/02 06:29:51;;;;;;;3.85;2.30;;;17.30;99.90;;;;;;5027041;28;20037;-35
2022/07/02 06:32:17;;;;;;;3.72;2.20;;;17.40;99.90;;;;;;5027723;28;20037;-35
2022/07/02 06:34:43;;;;;;;2.95;2.33;;;17.40;99.90;;;;;;5028024;28;20025;-35
2022/07/02 06:37:09;;;;;;;4.30;2.08;;;17.50;99.90;;;;;;5027591;28;20033;-35
2022/07/02 06:39:35;;;;;;;3.28;1.80;;;17.60;99.90;;;;;;5026834;28;20567;-34
2022/07/02 06:42:19;;;;;;;2.63;1.90;;;17.60;99.90;;;;;;5027747;28;20485;-34
2022/07/02 06:44:50;;;;;;;3.15;1.98;;;17.70;99.90;;;;;;5027906;28;20037;-34
2022/07/02 06:47:16;;;;;;;2.63;1.88;;;17.80;99.90;;;;;;5027972;28;20032;-34
2022/07/02 06:49:42;;;;;;;2.92;2.20;;;17.80;99.90;;;;;;5026732;28;20064;-34
2022/07/02 06:52:08;;;;;;;4.28;2.10;;;17.80;99.90;;;;;;5027986;28;20425;-34
2022/07/02 06:54:35;;;;;;;3.13;1.95;;;17.80;99.90;;;;;;5026544;28;20033;-33
2022/07/02 06:57:00;;;;;;;2.90;1.90;;;17.80;99.90;;;;;;5027007;28;20479;-34
2022/07/02 06:59:26;;;;;;;2.70;1.83;;;17.70;99.90;;;;;;5011527;28;20041;-34
2022/07/02 07:01:51;;;;;;;2.30;1.85;;;17.70;99.90;;;;;;5017544;28;20073;-34
2022/07/02 07:04:17;;;;;;;2.17;1.90;;;17.70;99.90;;;;;;5008434;28;20021;-35
2022/07/02 07:06:52;;;;;;;2.95;1.60;;;17.70;99.90;;;;;;5017992;28;20030;-35
2022/07/02 07:09:18;;;;;;;3.30;1.67;;;17.70;99.90;;;;;;5007845;28;20033;-36
2022/07/02 07:11:44;;;;;;;2.45;1.40;;;17.80;99.90;;;;;;5016987;28;20473;-35
2022/07/02 07:14:10;;;;;;;2.42;1.45;;;17.80;99.90;;;;;;5007226;28;20037;-35
2022/07/02 07:16:36;;;;;;;1.52;1.42;;;17.90;99.90;;;;;;5018982;28;20014;-34
2022/07/02 07:19:07;;;;;;;2.08;1.60;;;18.00;99.90;;;;;;5006028;28;20026;-35
2022/07/02 07:21:34;;;;;;;4.97;1.90;;;18.10;99.90;;;;;;5018633;28;20044;-35
2022/07/02 07:23:59;;;;;;;5.10;1.40;;;18.20;99.90;;;;;;5006682;28;20041;-37
2022/07/02 07:26:25;;;;;;;1.90;1.10;;;18.20;99.90;;;;;;5017127;28;20029;-34
2022/07/02 07:28:51;;;;;;;1.33;0.90;;;18.30;99.90;;;;;;5006860;28;20026;-35
2022/07/02 07:31:20;;;;;;;1.38;1.00;;;18.30;99.90;;;;;;5015198;28;20128;-35
2022/07/02 07:33:46;;;;;;;1.75;0.95;;;18.30;99.90;;;;;;5008837;28;20104;-37
2022/07/02 07:36:12;;;;;;;0.93;0.75;;;18.30;99.90;;;;;;5013861;28;20880;-33
2022/07/02 07:38:38;;;;;;;1.33;0.73;;;18.30;99.90;;;;;;5010519;28;20037;-35
2022/07/02 07:41:04;;;;;;;2.47;0.70;;;18.30;99.90;;;;;;5011522;28;20301;-35
2022/07/02 07:43:30;;;;;;;1.17;0.55;;;18.30;99.90;;;;;;5012885;28;20072;-35
2022/07/02 07:45:55;;;;;;;1.02;0.73;;;18.30;99.90;;;;;;5007764;28;20024;-36
2022/07/02 07:48:21;;;;;;;2.42;0.60;;;18.30;99.90;;;;;;5022835;28;20112;-35
2022/07/02 07:50:46;;;;;;;1.42;0.60;;;18.40;99.90;;;;;;5024015;28;20072;-35
2022/07/02 07:53:12;;;;;;;1.20;0.47;;;18.40;99.90;;;;;;5014203;28;20029;-35
2022/07/02 07:55:39;;;;;;;1.77;0.47;;;18.40;99.90;;;;;;5025332;28;20025;-34
2022/07/02 07:58:05;;;;;;;2.00;0.70;;;18.40;99.90;;;;;;5013920;28;20132;-34
2022/07/02 08:00:30;;;;;;;1.00;0.45;;;18.50;99.90;;;;;;5024687;28;20045;-35
2022/07/02 08:02:56;;;;;;;1.15;0.57;;;18.50;99.90;;;;;;5012937;28;20041;-34
2022/07/02 08:05:21;;;;;;;1.23;0.50;;;18.60;99.90;;;;;;5026200;28;20034;-34
2022/07/02 08:07:47;;;;;;;0.93;0.50;;;18.60;99.90;;;;;;5012782;28;20381;-34
2022/07/02 08:10:12;;;;;;;0.75;0.55;;;18.60;99.90;;;;;;5025075;28;20372;-34
2022/07/02 08:12:41;;;;;;;2.85;0.65;;;18.70;99.80;;;;;;5015830;28;20022;-35
2022/07/02 08:15:08;;;;;;;2.05;0.77;;;18.70;99.50;;;;;;5022202;28;20028;-35
2022/07/02 08:17:35;;;;;;;2.15;0.50;;;18.80;99.20;;;;;;5018398;28;20484;-35
2022/07/02 08:20:05;;;;;;;2.17;0.73;;;18.90;99.20;;;;;;5020681;28;20052;-35
2022/07/02 08:22:34;;;;;;;1.75;0.57;;;18.90;99.10;;;;;;5019345;28;20389;-36
2022/07/02 08:25:00;;;;;;;2.03;0.70;;;18.90;99.00;;;;;;5019823;28;20034;-35
2022/07/02 08:27:26;;;;;;;2.53;0.85;;;18.90;99.00;;;;;;5021772;28;20037;-35
2022/07/02 08:29:52;;;;;;;1.38;0.65;;;19.00;98.60;;;;;;5015714;28;20044;-35
2022/07/02 08:32:17;;;;;;;1.98;0.70;;;19.10;98.60;;;;;;5024023;28;20023;-35
2022/07/02 08:34:43;;;;;;;0.93;0.52;;;19.10;98.50;;;;;;5013751;28;20033;-35
2022/07/02 08:37:08;;;;;;;1.15;0.52;;;19.20;98.30;;;;;;5024402;28;20022;-35
2022/07/02 08:39:34;;;;;;;1.20;0.70;;;19.30;98.30;;;;;;5013814;28;20500;-35
2022/07/02 08:42:01;;;;;;;0.75;0.47;;;19.30;98.30;;;;;;5025120;28;20072;-35
2022/07/02 08:44:28;;;;;;;1.42;0.65;;;19.40;98.30;;;;;;5011948;28;20092;-35
2022/07/02 08:46:54;;;;;;;1.13;0.50;;;19.40;98.30;;;;;;5026261;28;20026;-35
2022/07/02 08:49:21;;;;;;;0.95;0.52;;;19.40;98.30;;;;;;5011426;28;20033;-35
2022/07/02 08:52:21;;;;;;;1.45;0.70;;;19.40;98.20;;;;;;5025198;28;20326;-35
2022/07/02 08:54:39;;;;;;;1.45;0.55;;;19.50;98.10;;;;;;5009635;28;20604;-35
2022/07/02 08:57:07;;;;;;;1.25;0.57;;;19.60;97.80;;;;;;5024442;28;20553;-34
2022/07/02 08:59:33;;;;;;;2.88;0.85;;;19.70;97.70;;;;;;5011777;28;20036;-36
2022/07/02 09:02:00;;;;;;;1.42;0.75;;;19.70;97.40;;;;;;5026688;28;20037;-35
2022/07/02 09:04:26;;;;;;;1.33;0.60;;;19.80;97.40;;;;;;5018226;28;20030;-36
2022/07/02 09:06:58;;;;;;;1.48;0.63;;;19.80;97.40;;;;;;5026609;28;20499;-35
2022/07/02 09:09:26;;;;;;;1.63;0.70;;;19.80;97.40;;;;;;5020693;28;20041;-36
2022/07/02 09:11:51;;;;;;;3.38;0.60;;;19.90;97.40;;;;;;5024439;28;20022;-35
2022/07/02 09:14:17;;;;;;;1.17;0.52;;;20.00;97.50;;;;;;5023509;28;20025;-35
2022/07/02 09:16:43;;;;;;;1.15;0.68;;;20.00;97.50;;;;;;5021002;28;20026;-35
2022/07/02 09:19:09;;;;;;;1.42;0.75;;;20.10;97.40;;;;;;5040655;28;20155;-37
2022/07/02 09:21:48;;;;;;;1.77;0.95;;;20.20;97.40;;;;;;5028679;28;20071;-34
2022/07/02 09:24:15;;;;;;;1.02;0.50;;;20.20;97.30;;;;;;5029032;28;20116;-34
2022/07/02 09:26:40;;;;;;;3.67;0.80;;;20.30;97.10;;;;;;5029269;28;20033;-35
2022/07/02 09:29:06;;;;;;;2.10;0.82;;;20.40;96.80;;;;;;5029400;28;20113;-35
2022/07/02 09:31:46;;;;;;;1.90;0.80;;;20.40;96.40;;;;;;5020601;28;20049;-35
2022/07/02 09:34:23;;;;;;;2.03;0.73;;;20.50;96.10;;;;;;5010564;28;20037;-35
2022/07/02 09:36:48;;;;;;;1.30;0.70;;;20.50;96.10;;;;;;5020671;28;20022;-35
2022/07/02 09:39:14;;;;;;;3.03;0.82;;;20.60;96.10;;;;;;5009637;28;20030;-36
2022/07/02 09:41:43;;;;;;;1.92;0.50;;;20.60;95.90;;;;;;5020036;28;20473;-35
2022/07/02 09:44:11;;;;;;;2.40;0.70;;;20.70;96.00;;;;;;5010065;28;20026;-36
2022/07/02 09:46:43;;;;;;;1.75;0.93;;;20.80;95.80;;;;;;5027549;28;20056;-36
2022/07/02 09:49:09;;;;;;;1.20;0.73;;;20.80;95.80;;;;;;5028955;28;20105;-36
2022/07/02 09:51:51;;;;;;;1.33;0.52;;;20.90;95.80;;;;;;5028092;28;20108;-37
2022/07/02 09:54:21;;;;;;;0.77;0.52;;;21.00;95.80;;;;;;5028465;28;20450;-36
2022/07/02 09:56:52;;;;;;;1.85;0.68;;;21.10;95.90;;;;;;5028280;28;20025;-36
2022/07/02 09:59:18;;;;;;;1.90;0.70;;;21.10;95.80;;;;;;5027460;28;20049;-35
2022/07/02 10:01:44;;;;;;;1.08;0.50;;;21.20;95.60;;;;;;5027804;28;20192;-34
2022/07/02 10:04:10;;;;;;;1.15;0.60;;;21.20;95.40;;;;;;5029318;28;20171;-35
2022/07/02 10:06:35;;;;;;;1.98;0.80;;;21.30;95.30;;;;;;5027353;28;20021;-35
2022/07/02 10:09:01;;;;;;;0.88;0.60;;;21.30;95.30;;;;;;5029082;28;20536;-35
2022/07/02 10:11:29;;;;;;;1.20;0.60;;;21.40;95.20;;;;;;5028034;28;20028;-35
2022/07/02 10:13:56;;;;;;;5.68;0.90;;;21.40;95.30;;;;;;5027338;28;20025;-35
2022/07/02 10:16:24;;;;;;;2.33;0.73;;;21.50;95.10;;;;;;5028131;28;20682;-35
2022/07/02 10:18:50;;;;;;;3.03;0.80;;;21.60;95.30;;;;;;5028862;28;20072;-36
2022/07/02 10:21:16;;;;;;;1.10;0.50;;;21.60;94.70;;;;;;5027578;28;20095;-35
2022/07/02 10:23:44;;;;;;;2.10;0.82;;;21.70;94.80;;;;;;5027780;28;20025;-35
2022/07/02 10:26:10;;;;;;;1.42;0.73;;;21.80;94.60;;;;;;5028471;28;20107;-34
2022/07/02 10:28:36;;;;;;;1.30;0.70;;;21.90;94.10;;;;;;5021007;28;20475;-34
2022/07/02 10:31:03;;;;;;;2.05;0.52;;;22.00;94.00;;;;;;5045116;28;20037;-35
2022/07/02 10:33:32;;;;;;;1.60;0.80;;;22.00;93.80;;;;;;5027909;28;20116;-36
2022/07/02 10:35:59;;;;;;;2.17;0.70;;;22.10;93.70;;;;;;5027391;28;20033;-35
2022/07/02 10:38:37;;;;;;;1.98;0.60;;;22.10;93.50;;;;;;5027156;28;20496;-34
2022/07/02 10:41:03;;;;;;;2.88;0.70;;;22.20;93.30;;;;;;5028062;28;20057;-34
2022/07/02 10:43:33;;;;;;;1.83;0.60;;;22.20;93.30;;;;;;5026972;28;20017;-35
2022/07/02 10:46:05;;;;;;;1.85;0.70;;;22.20;93.20;;;;;;5028443;28;20033;-34
2022/07/02 10:48:34;;;;;;;1.42;0.70;;;22.30;93.30;;;;;;5026281;28;20079;-34
2022/07/02 10:50:59;;;;;;;1.85;0.60;;;22.30;93.10;;;;;;5028539;28;20091;-34
2022/07/02 10:53:28;;;;;;;0.70;0.55;;;22.30;93.00;;;;;;5027202;28;20485;-34
2022/07/02 10:55:53;;;;;;;0.80;0.45;;;22.40;92.80;;;;;;5027609;28;20134;-48
2022/07/02 10:58:24;;;;;;;1.95;0.60;;;22.40;92.80;;;;;;5027676;28;20117;-36
2022/07/02 11:00:51;;;;;;;2.60;0.93;;;22.50;92.60;;;;;;5027443;28;20132;-35
2022/07/02 11:03:21;;;;;;;3.20;0.90;;;22.50;92.10;;;;;;5026634;28;20107;-34
2022/07/02 11:06:20;;;;;;;3.03;0.70;;;22.60;91.70;;;;;;5027715;28;20030;-34
2022/07/02 11:08:48;;;;;;;2.08;0.60;;;22.60;91.50;;;;;;5014874;28;20037;-36
2022/07/02 11:11:20;;;;;;;0.75;0.60;;;22.60;91.60;;;;;;5017908;28;20022;-36
2022/07/02 11:13:58;;;;;;;1.42;0.50;;;22.60;91.70;;;;;;5021134;28;20068;-35
2022/07/02 11:16:37;;;;;;;0.98;0.60;;;22.70;91.80;;;;;;5024961;28;20017;-35
2022/07/02 11:19:03;;;;;;;1.20;0.70;;;22.80;91.60;;;;;;5028080;28;20453;-37
2022/07/02 11:21:29;;;;;;;1.00;0.60;;;23.00;91.00;;;;;;5026692;28;20485;-36
2022/07/02 11:23:55;;;;;;;1.38;0.60;;;23.10;90.90;;;;;;5026357;28;20021;-35
2022/07/02 11:26:26;;;;;;;1.17;0.75;;;23.30;90.60;;;;;;5025825;28;20036;-35
2022/07/02 11:28:52;;;;;;;1.25;0.70;;;23.40;90.60;;;;;;5027257;28;20022;-34
2022/07/02 11:31:21;;;;;;;1.65;0.70;;;23.50;89.90;;;;;;5026550;28;20029;-34
2022/07/02 11:33:52;;;;;;;1.30;0.70;;;23.60;89.00;;;;;;5026803;28;20018;-34
2022/07/02 11:36:19;;;;;;;1.27;0.65;;;23.80;87.60;;;;;;5027290;28;20017;-34
2022/07/02 11:38:46;;;;;;;1.00;0.50;;;23.90;87.30;;;;;;5026180;28;20053;-34
2022/07/02 11:41:23;;;;;;;0.88;0.55;;;24.00;87.60;;;;;;5026965;28;20037;-35
2022/07/02 11:43:51;;;;;;;1.92;0.90;;;24.10;87.40;;;;;;5026416;28;20036;-36
2022/07/02 11:46:19;;;;;;;1.10;0.60;;;24.10;87.20;;;;;;5025771;28;20049;-36
2022/07/02 11:48:46;;;;;;;3.42;0.85;;;24.20;87.60;;;;;;5026233;28;20167;-35
2022/07/02 11:51:12;;;;;;;2.20;0.75;;;24.20;86.70;;;;;;5027187;28;20033;-36
2022/07/02 11:53:38;;;;;;;4.80;0.90;;;24.20;86.50;;;;;;5025403;28;20026;-35
2022/07/02 11:56:09;;;;;;;2.70;1.00;;;24.30;85.90;;;;;;5025919;28;20056;-35
2022/07/02 11:58:42;;;;;;;2.75;0.68;;;24.30;83.90;;;;;;5026263;28;20025;-34
2022/07/02 12:01:24;;;;;;;1.08;0.55;;;24.30;84.30;;;;;;5014167;28;20060;-35
2022/07/02 12:03:52;;;;;;;0.88;0.70;;;24.30;84.70;;;;;;5026226;28;20021;-35
2022/07/02 12:06:18;;;;;;;0.95;0.70;;;24.20;84.40;;;;;;5024507;28;20432;-34
2022/07/02 12:08:44;;;;;;;3.50;1.45;;;24.20;85.20;;;;;;5026004;28;20041;-36
2022/07/02 12:11:20;;;;;;;2.45;0.60;;;24.20;84.90;;;;;;5026416;28;20038;-35
2022/07/02 12:13:46;;;;;;;1.00;0.70;;;24.20;84.20;;;;;;5025310;28;20164;-35
2022/07/02 12:16:14;;;;;;;2.42;1.30;;;24.20;84.40;;;;;;5026275;28;20098;-35
2022/07/02 12:18:40;;;;;;;0.98;0.70;;;24.20;84.60;;;;;;5026393;28;20556;-34
2022/07/02 12:21:14;;;;;;;1.35;0.60;;;24.20;83.70;;;;;;5025159;28;20143;-35
2022/07/02 12:23:50;;;;;;;1.17;0.52;;;24.20;83.20;;;;;;5025821;28;20091;-35
2022/07/02 12:26:22;;;;;;;2.13;0.90;;;24.20;83.20;;;;;;5015205;28;20057;-35
2022/07/02 12:31:47;;;;;;;1.27;0.60;;;24.10;84.30;;;;;;5014273;28;20014;-35
2022/07/02 12:34:13;;;;;;;0.50;0.40;;;24.20;84.50;;;;;;5005899;28;20034;-36
2022/07/02 12:36:47;;;;;;;2.55;0.65;;;24.20;84.60;;;;;;5020463;28;20025;-36
2022/07/02 12:39:13;;;;;;;1.67;0.77;;;24.20;84.40;;;;;;5025655;28;20117;-35
2022/07/02 12:41:38;;;;;;;1.40;0.63;;;24.30;83.50;;;;;;5023935;28;20124;-35
2022/07/02 12:44:04;;;;;;;2.30;0.63;;;24.30;82.80;;;;;;5023501;28;20598;-34
2022/07/02 12:46:30;;;;;;;1.40;0.47;;;24.30;82.70;;;;;;5023574;28;20087;-35
2022/07/02 12:48:55;;;;;;;0.85;0.55;;;24.40;82.50;;;;;;5023893;28;20024;-35
2022/07/02 12:51:22;;;;;;;1.92;0.60;;;24.50;82.20;;;;;;5025030;28;20485;-35
2022/07/02 12:53:56;;;;;;;0.60;0.40;;;24.60;82.00;;;;;;5024089;28;20029;-36
2022/07/02 12:56:21;;;;;;;1.40;0.60;;;24.60;82.10;;;;;;5023960;28;20029;-36